This is the latest recevied weather packets stored in our database for station/object KB3VSP. If no packets are shown the sender has not sent any weather packets the latest 1 day(s).
| Time | Temp. | Humidity | Pressure | Rain* | Wind** | Luminosity | Snow |
|---|---|---|---|---|---|---|---|
| 1777999809 | 21.67° C | 55% | 1008.2 hPa | 0 mm | 1.79 m/s, 245° | 248 W/m² | - |
| 1777999506 | 21.67° C | 56% | 1008.1 hPa | 0 mm | 0.45 m/s, 151° | 186 W/m² | - |
| 1777999204 | 21.67° C | 56% | 1008.2 hPa | 0 mm | 2.24 m/s, 304° | 167 W/m² | - |
| 1777998897 | 22.22° C | 56% | 1008.3 hPa | 0 mm | 1.34 m/s, 156° | 195 W/m² | - |
| 1777998596 | 22.22° C | 55% | 1008.3 hPa | 0 mm | 1.34 m/s, 63° | 157 W/m² | - |
| 1777998291 | 21.67° C | 58% | 1008.3 hPa | 0 mm | 1.79 m/s, 236° | 728 W/m² | - |
| 1777997987 | 21.67° C | 57% | 1008.4 hPa | 0 mm | 1.79 m/s, 176° | 161 W/m² | - |
| 1777997679 | 21.67° C | 58% | 1008.3 hPa | 0 mm | 1.79 m/s, 180° | 664 W/m² | - |
| 1777997377 | 21.11° C | 59% | 1008.7 hPa | 0 mm | 1.34 m/s, 154° | 170 W/m² | - |
| 1777997075 | 21.11° C | 59% | 1008.9 hPa | 0 mm | 0.45 m/s, 25° | 103 W/m² | - |
| 1777996771 | 21.11° C | 59% | 1008.8 hPa | 0 mm | 1.79 m/s, 282° | 147 W/m² | - |
| 1777996467 | 20.56° C | 60% | 1008.8 hPa | 0 mm | 0.89 m/s, 181° | 139 W/m² | - |
| 1777996163 | 20.56° C | 60% | 1008.8 hPa | 0 mm | 1.79 m/s, 322° | 131 W/m² | - |
| 1777995854 | 20.56° C | 61% | 1008.8 hPa | 0 mm | 1.79 m/s, 280° | 108 W/m² | - |
| 1777995550 | 20.56° C | 61% | 1008.7 hPa | 0 mm | 0.89 m/s, 330° | 163 W/m² | - |
| 1777995248 | 20° C | 62% | 1008.9 hPa | 0 mm | 1.79 m/s, 221° | 135 W/m² | - |
| 1777994944 | 20° C | 62% | 1008.9 hPa | 0 mm | 0.89 m/s, 155° | 110 W/m² | - |
| 1777994641 | 20° C | 63% | 1008.7 hPa | 0 mm | 0.89 m/s, 116° | 94 W/m² | - |
| 1777994336 | 20° C | 62% | 1008.9 hPa | 0 mm | 1.34 m/s, 325° | 85 W/m² | - |
| 1777994033 | 20° C | 63% | 1008.6 hPa | 0 mm | 0.45 m/s, 37° | 65 W/m² | - |
| 1777993729 | 20° C | 63% | 1008.6 hPa | 0 mm | 0.45 m/s, 69° | 65 W/m² | - |
| 1777993426 | 20° C | 62% | 1008.4 hPa | 0 mm | 0.45 m/s, 109° | 78 W/m² | - |
| 1777993120 | 20.56° C | 62% | 1008.4 hPa | 0 mm | 0.89 m/s, 249° | 98 W/m² | - |
| 1777992814 | 20.56° C | 61% | 1008.4 hPa | 0 mm | 0.89 m/s, 173° | 125 W/m² | - |
| 1777992511 | 20.56° C | 62% | 1008.6 hPa | 0 mm | 0.89 m/s, 174° | 160 W/m² | - |
* Rain latest hour (hover to see other rain measurements)
** Current wind speed in m/s (hover to see current wind gust speed)